Elizabethtown, NC (28337)

3:27 AM EDT on May 07, 2015 (GMT -0400)
Elizabethtown | | Change Station
CLOSE
Current Station
Airport
Location: Elizabethtown,
Elevation: 131 ft
Nearby Weather Stations

Elev 131 ft 34.60 °N, 78.58 °W | Updated 12 minutes ago

Clear
Clear
61 °F
Feels Like 61 °F
N
0
Wind Variable Wind from North

Today
High -- | Low -- °F
--% Chance of Precip.
Yesterday
High -- | Low -- °F
Precip. -- in
6:18 AM 8:03 PM
Waning Gibbous, 90% visible
Pressure 30.09 in
Visibility 10.0 miles
Clouds Clear
Dew Point 58 °F
Humidity 90%
Rainfall 0.00 in
Snow Depth Not available.
UV 0 out of 12
Pollen 8.60 out of 12
Air Quality Not available.
Flu Activity No Activity
METAR KEYF 070715Z AUTO 00000KT 10SM CLR 16/15 A3009 RMK AO2 T01610145

More Conditions Fewer Conditions

Pressure 30.09 in
Visibility 10.0 miles
Clouds Clear
Dew Point 58 °F
Humidity 90%
Rainfall 0.00 in
Snow Depth Not available.
UV 0 out of 12
Pollen 8.60 out of 12
Air Quality Not available.
Flu Activity No Activity
METAR KEYF 070715Z AUTO 00000KT 10SM CLR 16/15 A3009 RMK AO2 T01610145

More Conditions Fewer Conditions

The National Hurricane Center is watching an area of disturbed weather just east of Florida for development. There is a 60% chance of intensification over the next 2 days and this system could become the first named tropical storm of the year. Many atmospheric models take the system close to the coasts of South Carolina and North Carolina later this week, but will have to wait for more information to be more confident in its track.

10-Day Weather Forecast

Almanac

Astronomy

May. 07, 2015 Rise Set
Actual Time
Civil Twilight
Nautical Twilight
Astronomical Twilight
Moon
Length of Visible Light
Length of Day
Tomorrow will be .
, % of the Moon is Illuminated

Today's Extremes

State Highs State Lows

Community

WunderPhotos

Upload Photos

1,819,126 photos uploaded!

WunderBlogs® & News

Nearby

Air Quality

  Air Quality AQ Index Pollutant
Not available.

Snow Depth

Station Depth Elevation

Earthquake Activity

City Distance Mag. Time & Date
Minimum magnitude displayed is 2.5.

Coastal Water Temperatures

Place Temperature

Stations

Nearby Weather Stations

Station Location Temp. Windchill Dew Point Humidity Wind Precip. Elev Updated Type